createdAt,value
2023-03-06T00:00:09.362Z,947.63
2023-03-06T00:00:20.145Z,947.64
2023-03-06T00:00:31.205Z,947.63
2023-03-06T00:00:42.174Z,947.64
2023-03-06T00:00:52.946Z,947.65
2023-03-06T00:01:04.035Z,947.66
2023-03-06T00:01:14.964Z,947.64
2023-03-06T00:01:25.741Z,947.64
2023-03-06T00:01:36.782Z,947.63
2023-03-06T00:01:47.754Z,947.63
2023-03-06T00:01:58.521Z,947.63
2023-03-06T00:02:09.640Z,947.62
2023-03-06T00:02:20.616Z,947.61
2023-03-06T00:02:31.369Z,947.61
2023-03-06T00:02:42.417Z,947.61
2023-03-06T00:02:53.384Z,947.61
2023-03-06T00:03:04.170Z,947.60
2023-03-06T00:03:15.222Z,947.60
2023-03-06T00:03:26.277Z,947.59
2023-03-06T00:03:37.026Z,947.59
2023-03-06T00:03:48.160Z,947.59
2023-03-06T00:03:59.120Z,947.59
2023-03-06T00:04:09.994Z,947.58
2023-03-06T00:04:21.024Z,947.58
2023-03-06T00:04:31.985Z,947.57
2023-03-06T00:04:42.765Z,947.57
2023-03-06T00:04:53.824Z,947.57
2023-03-06T00:05:04.987Z,947.57
2023-03-06T00:05:15.716Z,947.57
2023-03-06T00:05:26.837Z,947.57
2023-03-06T00:05:37.813Z,947.56
2023-03-06T00:05:48.608Z,947.56
2023-03-06T00:05:59.398Z,947.56
2023-03-06T00:06:09.974Z,947.56
2023-03-06T00:06:20.775Z,947.56
2023-03-06T00:06:31.832Z,947.57
2023-03-06T00:06:42.828Z,947.55
2023-03-06T00:06:53.607Z,947.55
2023-03-06T00:07:04.662Z,947.55
2023-03-06T00:07:15.626Z,947.54
2023-03-06T00:07:26.393Z,947.55
2023-03-06T00:07:37.438Z,947.54
2023-03-06T00:07:48.409Z,947.54
2023-03-06T00:07:59.180Z,947.54
2023-03-06T00:08:10.259Z,947.53
2023-03-06T00:08:21.200Z,947.53
2023-03-06T00:08:31.958Z,947.53
2023-03-06T00:08:43.002Z,947.53
2023-03-06T00:08:54.019Z,947.54
2023-03-06T00:09:04.960Z,947.54
2023-03-06T00:09:15.995Z,947.54
2023-03-06T00:09:26.974Z,947.53
2023-03-06T00:09:37.757Z,947.54
2023-03-06T00:09:48.839Z,947.53
2023-03-06T00:09:59.814Z,947.53
2023-03-06T00:10:10.597Z,947.53
2023-03-06T00:10:21.689Z,947.53
2023-03-06T00:10:32.676Z,947.53
2023-03-06T00:10:43.448Z,947.53
2023-03-06T00:10:54.496Z,947.54
2023-03-06T00:11:05.534Z,947.53
2023-03-06T00:11:16.261Z,947.53
2023-03-06T00:11:27.311Z,947.54
2023-03-06T00:11:38.299Z,947.53
2023-03-06T00:11:49.068Z,947.52
2023-03-06T00:12:00.134Z,947.53
2023-03-06T00:12:11.142Z,947.54
2023-03-06T00:12:21.967Z,947.54
2023-03-06T00:12:32.439Z,947.54
2023-03-06T00:12:43.406Z,947.54
2023-03-06T00:12:54.169Z,947.54
2023-03-06T00:13:05.269Z,947.53
2023-03-06T00:13:16.216Z,947.53
2023-03-06T00:13:27.057Z,947.53
2023-03-06T00:13:38.140Z,947.53
2023-03-06T00:13:49.088Z,947.52
2023-03-06T00:13:59.857Z,947.51
2023-03-06T00:14:10.899Z,947.51
2023-03-06T00:14:21.873Z,947.52
2023-03-06T00:14:32.638Z,947.51
2023-03-06T00:14:43.682Z,947.51
2023-03-06T00:14:54.689Z,947.51
2023-03-06T00:15:05.840Z,947.51
2023-03-06T00:15:16.312Z,947.50
2023-03-06T00:15:27.296Z,947.49
2023-03-06T00:15:38.053Z,947.49
2023-03-06T00:15:49.190Z,947.49
2023-03-06T00:16:00.200Z,947.50
2023-03-06T00:16:11.019Z,947.50
2023-03-06T00:16:22.085Z,947.48
2023-03-06T00:16:33.076Z,947.49
2023-03-06T00:16:43.799Z,947.47
2023-03-06T00:16:54.885Z,947.47
2023-03-06T00:17:05.835Z,947.46
2023-03-06T00:17:16.605Z,947.46
2023-03-06T00:17:27.720Z,947.46
2023-03-06T00:17:38.644Z,947.47
2023-03-06T00:17:49.419Z,947.46
2023-03-06T00:18:00.463Z,947.45
2023-03-06T00:18:11.454Z,947.45
2023-03-06T00:18:22.228Z,947.44
2023-03-06T00:18:33.267Z,947.43
2023-03-06T00:18:44.252Z,947.43
2023-03-06T00:18:55.009Z,947.44
2023-03-06T00:19:06.097Z,947.43
2023-03-06T00:19:17.067Z,947.42
2023-03-06T00:19:27.879Z,947.42
2023-03-06T00:19:38.879Z,947.42
2023-03-06T00:19:49.862Z,947.42
2023-03-06T00:20:00.722Z,947.42
2023-03-06T00:20:11.186Z,947.40
2023-03-06T00:20:22.159Z,947.41
2023-03-06T00:20:33.016Z,947.41
2023-03-06T00:20:44.036Z,947.41
2023-03-06T00:20:54.978Z,947.41
2023-03-06T00:21:05.747Z,947.40
2023-03-06T00:21:16.801Z,947.40
2023-03-06T00:21:27.767Z,947.40
2023-03-06T00:21:38.563Z,947.40
2023-03-06T00:21:49.586Z,947.41
2023-03-06T00:22:00.599Z,947.40
2023-03-06T00:22:11.374Z,947.39
2023-03-06T00:22:22.413Z,947.39
2023-03-06T00:22:33.394Z,947.37
2023-03-06T00:22:44.224Z,947.37
2023-03-06T00:22:54.716Z,947.36
2023-03-06T00:23:05.668Z,947.38
2023-03-06T00:23:16.458Z,947.39
2023-03-06T00:23:27.512Z,947.37
2023-03-06T00:23:38.468Z,947.35
2023-03-06T00:23:49.286Z,947.37
2023-03-06T00:24:00.294Z,947.36
2023-03-06T00:24:11.261Z,947.35
2023-03-06T00:24:22.031Z,947.35
2023-03-06T00:24:33.076Z,947.36
2023-03-06T00:24:44.102Z,947.36
2023-03-06T00:24:54.838Z,947.36
2023-03-06T00:25:05.980Z,947.37
2023-03-06T00:25:16.898Z,947.36
2023-03-06T00:25:27.720Z,947.37
2023-03-06T00:25:38.929Z,947.37
2023-03-06T00:25:49.344Z,947.36
2023-03-06T00:26:00.127Z,947.36
2023-03-06T00:26:11.229Z,947.37
2023-03-06T00:26:22.179Z,947.38
2023-03-06T00:26:33.155Z,947.38
2023-03-06T00:26:44.213Z,947.37
2023-03-06T00:26:55.180Z,947.38
2023-03-06T00:27:05.939Z,947.37
2023-03-06T00:27:17.007Z,947.37
2023-03-06T00:27:28.027Z,947.37
2023-03-06T00:27:38.746Z,947.37
2023-03-06T00:27:49.813Z,947.36
2023-03-06T00:28:00.390Z,947.36
2023-03-06T00:28:11.184Z,947.37
2023-03-06T00:28:21.705Z,947.37
2023-03-06T00:28:32.670Z,947.36
2023-03-06T00:28:43.563Z,947.37
2023-03-06T00:28:54.024Z,947.37
2023-03-06T00:29:04.997Z,947.37
2023-03-06T00:29:15.960Z,947.36
2023-03-06T00:29:27.016Z,947.36
2023-03-06T00:29:38.017Z,947.35
2023-03-06T00:29:48.756Z,947.37
2023-03-06T00:29:59.812Z,947.35
2023-03-06T00:30:10.800Z,947.35
2023-03-06T00:30:21.573Z,947.35
2023-03-06T00:30:32.621Z,947.35
2023-03-06T00:30:43.616Z,947.35
2023-03-06T00:30:54.382Z,947.35
2023-03-06T00:31:05.629Z,947.36
2023-03-06T00:31:16.119Z,947.36
2023-03-06T00:31:26.864Z,947.34
2023-03-06T00:31:37.972Z,947.34
2023-03-06T00:31:48.920Z,947.34
2023-03-06T00:31:59.740Z,947.33
2023-03-06T00:32:10.780Z,947.33
2023-03-06T00:32:21.763Z,947.33
2023-03-06T00:32:32.588Z,947.33
2023-03-06T00:32:43.050Z,947.31
2023-03-06T00:32:54.019Z,947.30
2023-03-06T00:33:04.786Z,947.31
2023-03-06T00:33:15.826Z,947.30
2023-03-06T00:33:26.812Z,947.31
2023-03-06T00:33:37.637Z,947.30
2023-03-06T00:33:48.663Z,947.30
2023-03-06T00:33:59.644Z,947.29
2023-03-06T00:34:10.420Z,947.30
2023-03-06T00:34:21.454Z,947.29
2023-03-06T00:34:32.437Z,947.30
2023-03-06T00:34:43.269Z,947.29
2023-03-06T00:34:53.746Z,947.29
2023-03-06T00:35:04.721Z,947.29
2023-03-06T00:35:15.531Z,947.30
2023-03-06T00:35:26.572Z,947.31
2023-03-06T00:35:37.536Z,947.31
2023-03-06T00:35:48.354Z,947.30
2023-03-06T00:35:59.358Z,947.30
2023-03-06T00:36:10.342Z,947.30
2023-03-06T00:36:21.090Z,947.30
2023-03-06T00:36:32.190Z,947.31
2023-03-06T00:36:43.130Z,947.31
2023-03-06T00:36:53.900Z,947.31
2023-03-06T00:37:04.949Z,947.30
2023-03-06T00:37:15.924Z,947.30
2023-03-06T00:37:26.708Z,947.30
2023-03-06T00:37:37.730Z,947.30
2023-03-06T00:37:48.766Z,947.30
2023-03-06T00:37:59.761Z,947.30
2023-03-06T00:38:10.239Z,947.29
2023-03-06T00:38:21.233Z,947.28
2023-03-06T00:38:31.996Z,947.27
2023-03-06T00:38:43.048Z,947.27
2023-03-06T00:38:54.039Z,947.27
2023-03-06T00:39:04.840Z,947.27
2023-03-06T00:39:15.860Z,947.26
2023-03-06T00:39:26.843Z,947.25
2023-03-06T00:39:37.613Z,947.26
2023-03-06T00:39:48.672Z,947.25
2023-03-06T00:39:59.644Z,947.24
2023-03-06T00:40:10.435Z,947.24
2023-03-06T00:40:21.488Z,947.23
2023-03-06T00:40:32.631Z,947.23
2023-03-06T00:40:43.365Z,947.23
2023-03-06T00:40:54.449Z,947.23
2023-03-06T00:41:05.445Z,947.23
2023-03-06T00:41:16.197Z,947.22
2023-03-06T00:41:27.244Z,947.23
2023-03-06T00:41:38.225Z,947.23
2023-03-06T00:41:48.982Z,947.22
2023-03-06T00:42:00.137Z,947.23
2023-03-06T00:42:11.076Z,947.22
2023-03-06T00:42:21.846Z,947.20
2023-03-06T00:42:32.898Z,947.21
2023-03-06T00:42:43.878Z,947.20
2023-03-06T00:42:54.669Z,947.19
2023-03-06T00:43:05.745Z,947.18
2023-03-06T00:43:16.756Z,947.18
2023-03-06T00:43:27.463Z,947.17
2023-03-06T00:43:38.512Z,947.17
2023-03-06T00:43:49.475Z,947.17
2023-03-06T00:44:00.262Z,947.18
2023-03-06T00:44:11.304Z,947.17
2023-03-06T00:44:22.278Z,947.16
2023-03-06T00:44:33.172Z,947.17
2023-03-06T00:44:44.253Z,947.15
2023-03-06T00:44:55.192Z,947.15
2023-03-06T00:45:05.958Z,947.15
2023-03-06T00:45:17.016Z,947.14
2023-03-06T00:45:28.014Z,947.15
2023-03-06T00:45:38.824Z,947.13
2023-03-06T00:45:49.428Z,947.12
2023-03-06T00:46:00.555Z,947.13
2023-03-06T00:46:11.354Z,947.12
2023-03-06T00:46:22.356Z,947.13
2023-03-06T00:46:33.330Z,947.13
2023-03-06T00:46:44.095Z,947.12
2023-03-06T00:46:55.150Z,947.12
2023-03-06T00:47:06.232Z,947.11
2023-03-06T00:47:16.962Z,947.10
2023-03-06T00:47:28.016Z,947.10
2023-03-06T00:47:39.000Z,947.10
2023-03-06T00:47:49.745Z,947.11
2023-03-06T00:48:00.837Z,947.10
2023-03-06T00:48:11.797Z,947.09
2023-03-06T00:48:22.575Z,947.09
2023-03-06T00:48:33.638Z,947.08
2023-03-06T00:48:44.642Z,947.08
2023-03-06T00:48:55.379Z,947.07
2023-03-06T00:49:06.440Z,947.08
2023-03-06T00:49:17.416Z,947.08
2023-03-06T00:49:28.186Z,947.07
2023-03-06T00:49:39.229Z,947.08
2023-03-06T00:49:50.198Z,947.08
2023-03-06T00:50:01.036Z,947.08
2023-03-06T00:50:11.540Z,947.07
2023-03-06T00:50:22.486Z,947.07
2023-03-06T00:50:33.273Z,947.07
2023-03-06T00:50:44.333Z,947.08
2023-03-06T00:50:55.321Z,947.08
2023-03-06T00:51:06.098Z,947.07
2023-03-06T00:51:17.155Z,947.06
2023-03-06T00:51:28.111Z,947.07
2023-03-06T00:51:38.975Z,947.06
2023-03-06T00:51:49.472Z,947.05
2023-03-06T00:52:00.447Z,947.04
2023-03-06T00:52:11.212Z,947.05
2023-03-06T00:52:22.255Z,947.06
2023-03-06T00:52:33.285Z,947.06
2023-03-06T00:52:44.029Z,947.05
2023-03-06T00:52:55.084Z,947.05
2023-03-06T00:53:06.062Z,947.05
2023-03-06T00:53:16.801Z,947.04
2023-03-06T00:53:27.851Z,947.03
2023-03-06T00:53:38.851Z,947.02
2023-03-06T00:53:49.607Z,947.03
2023-03-06T00:54:00.654Z,947.02
2023-03-06T00:54:11.613Z,947.01
2023-03-06T00:54:22.383Z,947.02
2023-03-06T00:54:33.456Z,947.01
2023-03-06T00:54:44.425Z,947.00
2023-03-06T00:54:55.190Z,947.01
2023-03-06T00:55:06.284Z,947.00
2023-03-06T00:55:17.243Z,947.00
2023-03-06T00:55:27.994Z,947.00
2023-03-06T00:55:39.082Z,947.01
2023-03-06T00:55:50.028Z,946.99
2023-03-06T00:56:00.786Z,946.99
2023-03-06T00:56:11.876Z,946.99
2023-03-06T00:56:22.852Z,946.99
2023-03-06T00:56:33.700Z,946.98
2023-03-06T00:56:44.190Z,946.98
2023-03-06T00:56:55.148Z,946.98
2023-03-06T00:57:05.968Z,946.98
2023-03-06T00:57:16.979Z,946.97
2023-03-06T00:57:27.967Z,946.96
2023-03-06T00:57:38.762Z,946.96
2023-03-06T00:57:49.288Z,946.95
2023-03-06T00:58:00.271Z,946.95
2023-03-06T00:58:11.034Z,946.95
2023-03-06T00:58:22.104Z,946.94
2023-03-06T00:58:33.125Z,946.93
2023-03-06T00:58:43.869Z,946.94
2023-03-06T00:58:54.916Z,946.93
2023-03-06T00:59:05.884Z,946.93
2023-03-06T00:59:16.647Z,946.92
2023-03-06T00:59:27.700Z,946.92
2023-03-06T00:59:38.694Z,946.92
2023-03-06T00:59:49.445Z,946.90
2023-03-06T01:00:00.499Z,946.90
2023-03-06T01:00:11.561Z,946.89
2023-03-06T01:00:22.288Z,946.88
2023-03-06T01:00:33.342Z,946.89
2023-03-06T01:00:44.390Z,946.89
2023-03-06T01:00:55.142Z,946.88
2023-03-06T01:01:06.193Z,946.88
2023-03-06T01:01:17.301Z,946.86
2023-03-06T01:01:28.119Z,946.84
2023-03-06T01:01:39.178Z,946.84
2023-03-06T01:01:50.278Z,946.83
2023-03-06T01:02:01.032Z,946.83
2023-03-06T01:02:12.115Z,946.83
2023-03-06T01:02:23.118Z,946.83
2023-03-06T01:02:33.989Z,946.83
2023-03-06T01:02:44.503Z,946.84
2023-03-06T01:02:55.453Z,946.84
2023-03-06T01:03:06.275Z,946.84
2023-03-06T01:03:17.319Z,946.83
2023-03-06T01:03:28.270Z,946.83
2023-03-06T01:03:39.026Z,946.83
2023-03-06T01:03:50.078Z,946.83
2023-03-06T01:04:01.106Z,946.83
2023-03-06T01:04:11.873Z,946.83
2023-03-06T01:04:22.918Z,946.82
2023-03-06T01:04:33.892Z,946.83
2023-03-06T01:04:44.669Z,946.83
2023-03-06T01:04:55.793Z,946.82
2023-03-06T01:05:06.748Z,946.83
2023-03-06T01:05:17.512Z,946.82
2023-03-06T01:05:28.598Z,946.83
2023-03-06T01:05:39.563Z,946.82
2023-03-06T01:05:50.342Z,946.83
2023-03-06T01:06:01.422Z,946.82
2023-03-06T01:06:12.377Z,946.82
2023-03-06T01:06:23.183Z,946.82
2023-03-06T01:06:33.721Z,946.82
2023-03-06T01:06:44.673Z,946.82
2023-03-06T01:06:55.683Z,946.83
2023-03-06T01:07:06.756Z,946.83
2023-03-06T01:07:17.696Z,946.82
2023-03-06T01:07:28.478Z,946.81
2023-03-06T01:07:39.603Z,946.80
2023-03-06T01:07:50.546Z,946.80
2023-03-06T01:08:01.309Z,946.79
2023-03-06T01:08:12.381Z,946.79
2023-03-06T01:08:23.334Z,946.81
2023-03-06T01:08:34.103Z,946.80
2023-03-06T01:08:45.144Z,946.78
2023-03-06T01:08:56.115Z,946.76
2023-03-06T01:09:06.966Z,946.75
2023-03-06T01:09:17.960Z,946.75
2023-03-06T01:09:28.928Z,946.75
2023-03-06T01:09:39.721Z,946.74
2023-03-06T01:09:50.787Z,946.74
2023-03-06T01:10:01.758Z,946.73
2023-03-06T01:10:12.521Z,946.73
2023-03-06T01:10:23.576Z,946.73
2023-03-06T01:10:34.560Z,946.72
2023-03-06T01:10:45.329Z,946.72
2023-03-06T01:10:56.376Z,946.71
2023-03-06T01:11:07.377Z,946.71
2023-03-06T01:11:18.159Z,946.70
2023-03-06T01:11:29.203Z,946.67
2023-03-06T01:11:40.171Z,946.66
2023-03-06T01:11:50.937Z,946.66
2023-03-06T01:12:02.002Z,946.66
2023-03-06T01:12:12.994Z,946.66
2023-03-06T01:12:23.855Z,946.64
2023-03-06T01:12:34.839Z,946.64
2023-03-06T01:12:45.809Z,946.64
2023-03-06T01:12:56.581Z,946.63
2023-03-06T01:13:07.646Z,946.63
2023-03-06T01:13:18.606Z,946.63
2023-03-06T01:13:29.363Z,946.62
2023-03-06T01:13:40.480Z,946.62
2023-03-06T01:13:51.423Z,946.61
2023-03-06T01:14:02.377Z,946.61
2023-03-06T01:14:13.445Z,946.61
2023-03-06T01:14:24.440Z,946.61
2023-03-06T01:14:35.197Z,946.62
2023-03-06T01:14:46.248Z,946.61
2023-03-06T01:14:57.297Z,946.62
2023-03-06T01:15:08.027Z,946.62
2023-03-06T01:15:19.096Z,946.63
2023-03-06T01:15:30.081Z,946.62
2023-03-06T01:15:40.832Z,946.63
2023-03-06T01:15:51.871Z,946.63
2023-03-06T01:16:02.929Z,946.63
2023-03-06T01:16:13.687Z,946.63
2023-03-06T01:16:24.778Z,946.63
2023-03-06T01:16:35.783Z,946.63
2023-03-06T01:16:46.588Z,946.62
2023-03-06T01:16:57.583Z,946.63
2023-03-06T01:17:08.568Z,946.63
2023-03-06T01:17:19.322Z,946.63
2023-03-06T01:17:30.374Z,946.63
2023-03-06T01:17:41.370Z,946.63
2023-03-06T01:17:52.135Z,946.62
2023-03-06T01:18:03.189Z,946.62
2023-03-06T01:18:14.182Z,946.62
2023-03-06T01:18:24.954Z,946.61
2023-03-06T01:18:36.010Z,946.61
2023-03-06T01:18:46.968Z,946.60
2023-03-06T01:18:57.742Z,946.61
2023-03-06T01:19:08.809Z,946.61
2023-03-06T01:19:19.778Z,946.60
2023-03-06T01:19:30.537Z,946.59
2023-03-06T01:19:41.124Z,946.59
2023-03-06T01:19:52.102Z,946.59
2023-03-06T01:20:03.063Z,946.59
2023-03-06T01:20:14.117Z,946.58
2023-03-06T01:20:25.184Z,946.60
2023-03-06T01:20:35.917Z,946.60
2023-03-06T01:20:46.964Z,946.59
2023-03-06T01:20:57.950Z,946.58
2023-03-06T01:21:08.743Z,946.58
2023-03-06T01:21:19.774Z,946.57
2023-03-06T01:21:30.787Z,946.59
2023-03-06T01:21:41.566Z,946.58
2023-03-06T01:21:52.097Z,946.59
2023-03-06T01:22:03.043Z,946.58
2023-03-06T01:22:13.856Z,946.56
2023-03-06T01:22:24.863Z,946.56
2023-03-06T01:22:35.831Z,946.57
2023-03-06T01:22:46.600Z,946.56
2023-03-06T01:22:57.668Z,946.56
2023-03-06T01:23:08.644Z,946.54
2023-03-06T01:23:19.466Z,946.53
2023-03-06T01:23:30.500Z,946.53
2023-03-06T01:23:41.479Z,946.52
2023-03-06T01:23:52.242Z,946.52
2023-03-06T01:24:03.293Z,946.52
2023-03-06T01:24:14.256Z,946.52
2023-03-06T01:24:25.044Z,946.52
2023-03-06T01:24:36.100Z,946.52
2023-03-06T01:24:47.083Z,946.52
2023-03-06T01:24:57.873Z,946.51
2023-03-06T01:25:08.914Z,946.51
2023-03-06T01:25:19.890Z,946.52
2023-03-06T01:25:30.657Z,946.52
2023-03-06T01:25:41.720Z,946.52
2023-03-06T01:25:52.687Z,946.52
2023-03-06T01:26:03.489Z,946.51
2023-03-06T01:26:14.513Z,946.51
2023-03-06T01:26:25.496Z,946.50
2023-03-06T01:26:36.274Z,946.51
2023-03-06T01:26:47.328Z,946.52
2023-03-06T01:26:58.295Z,946.52
2023-03-06T01:27:09.121Z,946.51
2023-03-06T01:27:20.149Z,946.51
2023-03-06T01:27:31.125Z,946.51
2023-03-06T01:27:41.908Z,946.51
2023-03-06T01:27:52.967Z,946.49
2023-03-06T01:28:03.925Z,946.49
2023-03-06T01:28:14.691Z,946.49
2023-03-06T01:28:25.783Z,946.49
2023-03-06T01:28:36.722Z,946.49
2023-03-06T01:28:47.501Z,946.49
2023-03-06T01:28:58.566Z,946.49
2023-03-06T01:29:09.515Z,946.49
2023-03-06T01:29:20.311Z,946.48
2023-03-06T01:29:31.351Z,946.48
2023-03-06T01:29:42.350Z,946.49
2023-03-06T01:29:53.110Z,946.49
2023-03-06T01:30:04.163Z,946.48
2023-03-06T01:30:15.179Z,946.49
2023-03-06T01:30:25.968Z,946.48
2023-03-06T01:30:37.013Z,946.48
2023-03-06T01:30:47.988Z,946.47
2023-03-06T01:30:58.828Z,946.46
2023-03-06T01:31:09.820Z,946.47
2023-03-06T01:31:20.830Z,946.45
2023-03-06T01:31:31.853Z,946.46
2023-03-06T01:31:42.972Z,946.45
2023-03-06T01:31:53.989Z,946.46
2023-03-06T01:32:04.952Z,946.45
2023-03-06T01:32:15.483Z,946.46
2023-03-06T01:32:26.470Z,946.46
2023-03-06T01:32:37.272Z,946.46
2023-03-06T01:32:47.806Z,946.46
2023-03-06T01:32:58.757Z,946.45
2023-03-06T01:33:09.519Z,946.45
2023-03-06T01:33:20.593Z,946.45
2023-03-06T01:33:31.555Z,946.45
2023-03-06T01:33:42.341Z,946.44
2023-03-06T01:33:53.393Z,946.44
2023-03-06T01:34:04.378Z,946.44
2023-03-06T01:34:15.204Z,946.44
2023-03-06T01:34:26.204Z,946.42
2023-03-06T01:34:37.182Z,946.42
2023-03-06T01:34:47.938Z,946.41
2023-03-06T01:34:58.997Z,946.40
2023-03-06T01:35:09.971Z,946.40
2023-03-06T01:35:20.907Z,946.39
2023-03-06T01:35:31.472Z,946.39
2023-03-06T01:35:42.462Z,946.39
2023-03-06T01:35:53.242Z,946.37
2023-03-06T01:36:04.245Z,946.37
2023-03-06T01:36:15.236Z,946.36
2023-03-06T01:36:26.007Z,946.36
2023-03-06T01:36:36.523Z,946.34
2023-03-06T01:36:47.494Z,946.34
2023-03-06T01:36:58.284Z,946.34
2023-03-06T01:37:09.364Z,946.34
2023-03-06T01:37:20.319Z,946.34
2023-03-06T01:37:31.093Z,946.32
2023-03-06T01:37:42.120Z,946.33
2023-03-06T01:37:53.111Z,946.31
2023-03-06T01:38:03.864Z,946.31
2023-03-06T01:38:14.938Z,946.30
2023-03-06T01:38:25.899Z,946.30
2023-03-06T01:38:36.677Z,946.28
2023-03-06T01:38:47.753Z,946.29
2023-03-06T01:38:58.703Z,946.29
2023-03-06T01:39:09.471Z,946.28
2023-03-06T01:39:20.552Z,946.29
2023-03-06T01:39:31.516Z,946.29
2023-03-06T01:39:42.277Z,946.29
2023-03-06T01:39:53.343Z,946.29
2023-03-06T01:40:04.312Z,946.28
2023-03-06T01:40:15.091Z,946.27
2023-03-06T01:40:26.137Z,946.27
2023-03-06T01:40:37.093Z,946.27
2023-03-06T01:40:47.857Z,946.27
2023-03-06T01:40:58.903Z,946.27
2023-03-06T01:41:09.894Z,946.27
2023-03-06T01:41:20.665Z,946.27
2023-03-06T01:41:31.754Z,946.26
2023-03-06T01:41:42.715Z,946.27
2023-03-06T01:41:53.603Z,946.27
2023-03-06T01:42:04.094Z,946.27
2023-03-06T01:42:15.062Z,946.27
2023-03-06T01:42:25.815Z,946.26
2023-03-06T01:42:36.866Z,946.25
2023-03-06T01:42:47.824Z,946.25
2023-03-06T01:42:58.593Z,946.25
2023-03-06T01:43:09.715Z,946.24
2023-03-06T01:43:20.644Z,946.23
2023-03-06T01:43:31.417Z,946.23
2023-03-06T01:43:42.511Z,946.22
2023-03-06T01:43:53.459Z,946.21
2023-03-06T01:44:04.241Z,946.21
2023-03-06T01:44:15.288Z,946.20
2023-03-06T01:44:26.330Z,946.19
2023-03-06T01:44:37.216Z,946.19
2023-03-06T01:44:48.260Z,946.18
2023-03-06T01:44:59.232Z,946.18
2023-03-06T01:45:09.999Z,946.18
2023-03-06T01:45:21.043Z,946.17
2023-03-06T01:45:32.032Z,946.16
2023-03-06T01:45:42.862Z,946.15
2023-03-06T01:45:53.931Z,946.14
2023-03-06T01:46:04.919Z,946.14
2023-03-06T01:46:15.730Z,946.13
2023-03-06T01:46:26.231Z,946.14
2023-03-06T01:46:37.198Z,946.14
2023-03-06T01:46:47.975Z,946.13
2023-03-06T01:46:59.044Z,946.14
2023-03-06T01:47:10.018Z,946.13
2023-03-06T01:47:20.826Z,946.14
2023-03-06T01:47:31.890Z,946.12
2023-03-06T01:47:42.829Z,946.12
2023-03-06T01:47:53.643Z,946.11
2023-03-06T01:48:04.753Z,946.10
2023-03-06T01:48:15.698Z,946.10
2023-03-06T01:48:26.489Z,946.10
2023-03-06T01:48:37.530Z,946.09
2023-03-06T01:48:48.612Z,946.08
2023-03-06T01:48:59.510Z,946.06
2023-03-06T01:49:10.543Z,946.06
2023-03-06T01:49:21.505Z,946.05
2023-03-06T01:49:32.280Z,946.05
2023-03-06T01:49:43.320Z,946.05
2023-03-06T01:49:54.288Z,946.04
2023-03-06T01:50:05.117Z,946.03
2023-03-06T01:50:15.606Z,946.03
2023-03-06T01:50:26.600Z,946.02
2023-03-06T01:50:37.379Z,946.02
2023-03-06T01:50:48.405Z,946.01
2023-03-06T01:50:59.387Z,946.00
2023-03-06T01:51:10.156Z,945.99
2023-03-06T01:51:21.277Z,946.00
2023-03-06T01:51:32.237Z,945.99
2023-03-06T01:51:43.061Z,945.99
2023-03-06T01:51:54.085Z,945.98
2023-03-06T01:52:05.075Z,945.97
2023-03-06T01:52:15.846Z,945.97
2023-03-06T01:52:26.894Z,945.96
2023-03-06T01:52:37.864Z,945.94
2023-03-06T01:52:48.647Z,945.95
2023-03-06T01:52:59.703Z,945.92
2023-03-06T01:53:10.650Z,945.91
2023-03-06T01:53:21.414Z,945.91
2023-03-06T01:53:32.515Z,945.91
2023-03-06T01:53:43.451Z,945.91
2023-03-06T01:53:54.215Z,945.91
2023-03-06T01:54:05.327Z,945.91
2023-03-06T01:54:16.242Z,945.91
2023-03-06T01:54:27.035Z,945.90
2023-03-06T01:54:38.067Z,945.89
2023-03-06T01:54:49.036Z,945.89
2023-03-06T01:55:00.005Z,945.89
2023-03-06T01:55:11.051Z,945.89
2023-03-06T01:55:22.027Z,945.89
2023-03-06T01:55:32.802Z,945.89
2023-03-06T01:55:43.847Z,945.89
2023-03-06T01:55:54.942Z,945.89
2023-03-06T01:56:05.716Z,945.88
2023-03-06T01:56:16.770Z,945.87
2023-03-06T01:56:27.735Z,945.88
2023-03-06T01:56:38.560Z,945.87
2023-03-06T01:56:49.595Z,945.87
2023-03-06T01:57:00.569Z,945.87
2023-03-06T01:57:11.337Z,945.85
2023-03-06T01:57:22.395Z,945.87
2023-03-06T01:57:33.410Z,945.87
2023-03-06T01:57:44.156Z,945.86
2023-03-06T01:57:55.207Z,945.87
2023-03-06T01:58:06.172Z,945.87
2023-03-06T01:58:16.951Z,945.87
2023-03-06T01:58:28.007Z,945.87
2023-03-06T01:58:39.022Z,945.87
2023-03-06T01:58:49.778Z,945.88
2023-03-06T01:59:00.840Z,945.85
2023-03-06T01:59:11.817Z,945.85
2023-03-06T01:59:22.580Z,945.85
2023-03-06T01:59:33.626Z,945.86
2023-03-06T01:59:44.597Z,945.85
2023-03-06T01:59:55.397Z,945.85
2023-03-06T02:00:06.435Z,945.87
2023-03-06T02:00:17.420Z,945.87
2023-03-06T02:00:28.195Z,945.85
2023-03-06T02:00:39.248Z,945.84
2023-03-06T02:00:50.226Z,945.84
2023-03-06T02:01:01.077Z,945.84
2023-03-06T02:01:11.580Z,945.82
2023-03-06T02:01:22.612Z,945.82
2023-03-06T02:01:33.337Z,945.83
2023-03-06T02:01:44.393Z,945.82
2023-03-06T02:01:55.387Z,945.81
2023-03-06T02:02:06.177Z,945.80
2023-03-06T02:02:17.306Z,945.80
2023-03-06T02:02:28.304Z,945.79
2023-03-06T02:02:39.094Z,945.79
2023-03-06T02:02:50.100Z,945.78
2023-03-06T02:03:01.079Z,945.78
2023-03-06T02:03:11.898Z,945.79
2023-03-06T02:03:22.939Z,945.78
2023-03-06T02:03:33.904Z,945.79
2023-03-06T02:03:44.670Z,945.77
2023-03-06T02:03:55.761Z,945.77
2023-03-06T02:04:06.732Z,945.77
2023-03-06T02:04:17.512Z,945.77
2023-03-06T02:04:28.545Z,945.77
2023-03-06T02:04:39.531Z,945.77
2023-03-06T02:04:50.332Z,945.77
2023-03-06T02:05:01.390Z,945.76
2023-03-06T02:05:12.354Z,945.75
2023-03-06T02:05:23.108Z,945.75
2023-03-06T02:05:34.198Z,945.77
2023-03-06T02:05:45.135Z,945.77
2023-03-06T02:05:55.909Z,945.76
2023-03-06T02:06:06.959Z,945.76
2023-03-06T02:06:17.938Z,945.76
2023-03-06T02:06:28.724Z,945.77
2023-03-06T02:06:39.764Z,945.75
2023-03-06T02:06:50.807Z,945.75
2023-03-06T02:07:01.558Z,945.74
2023-03-06T02:07:12.604Z,945.75
2023-03-06T02:07:23.552Z,945.75
2023-03-06T02:07:34.330Z,945.76
2023-03-06T02:07:45.392Z,945.75
2023-03-06T02:07:56.351Z,945.75
2023-03-06T02:08:07.130Z,945.74
2023-03-06T02:08:18.207Z,945.74
2023-03-06T02:08:29.159Z,945.73
2023-03-06T02:08:39.934Z,945.74
2023-03-06T02:08:51.003Z,945.74
2023-03-06T02:09:01.959Z,945.74
2023-03-06T02:09:12.743Z,945.74
2023-03-06T02:09:23.787Z,945.74
2023-03-06T02:09:34.841Z,945.74
2023-03-06T02:09:45.644Z,945.74
2023-03-06T02:09:56.633Z,945.73
2023-03-06T02:10:07.659Z,945.72
2023-03-06T02:10:18.412Z,945.73
2023-03-06T02:10:29.467Z,945.73
2023-03-06T02:10:40.447Z,945.73
2023-03-06T02:10:51.210Z,945.73
2023-03-06T02:11:02.285Z,945.74
2023-03-06T02:11:13.384Z,945.73
2023-03-06T02:11:24.234Z,945.73
2023-03-06T02:11:34.781Z,945.72
2023-03-06T02:11:45.817Z,945.73
2023-03-06T02:11:56.538Z,945.73
2023-03-06T02:12:07.590Z,945.74
2023-03-06T02:12:18.556Z,945.74
2023-03-06T02:12:29.328Z,945.74
2023-03-06T02:12:40.375Z,945.74
2023-03-06T02:12:51.349Z,945.74
2023-03-06T02:13:02.135Z,945.74
2023-03-06T02:13:13.175Z,945.74
2023-03-06T02:13:24.163Z,945.73
2023-03-06T02:13:34.943Z,945.73
2023-03-06T02:13:46.001Z,945.73
2023-03-06T02:13:56.966Z,945.72
2023-03-06T02:14:07.728Z,945.72
2023-03-06T02:14:18.807Z,945.72
2023-03-06T02:14:29.752Z,945.73
2023-03-06T02:14:40.529Z,945.73
2023-03-06T02:14:51.580Z,945.73
2023-03-06T02:15:02.600Z,945.72
2023-03-06T02:15:13.391Z,945.71
2023-03-06T02:15:24.502Z,945.71
2023-03-06T02:15:35.467Z,945.70
2023-03-06T02:15:46.264Z,945.69
2023-03-06T02:15:57.293Z,945.69
2023-03-06T02:16:08.252Z,945.68
2023-03-06T02:16:19.030Z,945.68